sensor_id;sensor_type;location;lat;lon;timestamp;P1;durP1;ratioP1;P2;durP2;ratioP2
78858;SDS011;68210;52.032;4.634;2024-01-06T00:01:54;8.18;;;5.18;;
78858;SDS011;68210;52.032;4.634;2024-01-06T00:03:55;9.30;;;5.15;;
78858;SDS011;68210;52.032;4.634;2024-01-06T00:05:55;10.73;;;5.35;;
78858;SDS011;68210;52.032;4.634;2024-01-06T00:07:56;8.82;;;4.82;;
78858;SDS011;68210;52.032;4.634;2024-01-06T00:09:56;9.45;;;4.28;;
78858;SDS011;68210;52.032;4.634;2024-01-06T00:11:57;8.77;;;4.43;;
78858;SDS011;68210;52.032;4.634;2024-01-06T00:13:58;8.32;;;4.38;;
78858;SDS011;68210;52.032;4.634;2024-01-06T00:16:00;6.53;;;4.63;;
78858;SDS011;68210;52.032;4.634;2024-01-06T00:18:00;8.95;;;4.97;;
78858;SDS011;68210;52.032;4.634;2024-01-06T00:20:01;9.18;;;4.68;;
78858;SDS011;68210;52.032;4.634;2024-01-06T00:22:02;7.53;;;4.88;;
78858;SDS011;68210;52.032;4.634;2024-01-06T00:24:03;8.73;;;4.68;;
78858;SDS011;68210;52.032;4.634;2024-01-06T00:26:09;7.68;;;4.50;;
78858;SDS011;68210;52.032;4.634;2024-01-06T00:28:11;7.05;;;4.53;;
78858;SDS011;68210;52.032;4.634;2024-01-06T00:30:13;7.45;;;4.47;;
78858;SDS011;68210;52.032;4.634;2024-01-06T00:32:14;7.22;;;4.35;;
78858;SDS011;68210;52.032;4.634;2024-01-06T00:34:15;9.75;;;4.53;;
78858;SDS011;68210;52.032;4.634;2024-01-06T00:36:15;10.23;;;5.05;;
78858;SDS011;68210;52.032;4.634;2024-01-06T00:38:16;9.02;;;5.00;;
78858;SDS011;68210;52.032;4.634;2024-01-06T00:40:16;9.57;;;5.13;;
78858;SDS011;68210;52.032;4.634;2024-01-06T00:42:18;9.82;;;5.45;;
78858;SDS011;68210;52.032;4.634;2024-01-06T00:44:19;8.50;;;4.63;;
78858;SDS011;68210;52.032;4.634;2024-01-06T00:46:19;13.65;;;5.63;;
78858;SDS011;68210;52.032;4.634;2024-01-06T00:48:20;10.07;;;4.60;;
78858;SDS011;68210;52.032;4.634;2024-01-06T00:50:20;10.45;;;4.22;;
78858;SDS011;68210;52.032;4.634;2024-01-06T00:52:20;6.55;;;3.70;;
78858;SDS011;68210;52.032;4.634;2024-01-06T00:54:21;7.00;;;4.55;;
78858;SDS011;68210;52.032;4.634;2024-01-06T00:56:21;7.55;;;3.83;;
78858;SDS011;68210;52.032;4.634;2024-01-06T00:58:21;8.57;;;4.18;;
78858;SDS011;68210;52.032;4.634;2024-01-06T01:00:22;7.25;;;3.65;;
78858;SDS011;68210;52.032;4.634;2024-01-06T01:02:22;6.32;;;3.55;;
78858;SDS011;68210;52.032;4.634;2024-01-06T01:04:23;7.60;;;3.63;;
78858;SDS011;68210;52.032;4.634;2024-01-06T01:06:23;7.20;;;3.65;;
78858;SDS011;68210;52.032;4.634;2024-01-06T01:08:23;6.45;;;3.05;;
78858;SDS011;68210;52.032;4.634;2024-01-06T01:10:24;5.93;;;2.67;;
78858;SDS011;68210;52.032;4.634;2024-01-06T01:12:24;5.55;;;2.40;;
78858;SDS011;68210;52.032;4.634;2024-01-06T01:14:25;3.75;;;2.55;;
78858;SDS011;68210;52.032;4.634;2024-01-06T01:16:25;3.22;;;1.83;;
78858;SDS011;68210;52.032;4.634;2024-01-06T01:18:25;2.90;;;1.60;;
78858;SDS011;68210;52.032;4.634;2024-01-06T01:20:26;2.67;;;1.75;;
78858;SDS011;68210;52.032;4.634;2024-01-06T01:22:26;2.13;;;1.20;;
78858;SDS011;68210;52.032;4.634;2024-01-06T01:24:26;2.58;;;1.77;;
78858;SDS011;68210;52.032;4.634;2024-01-06T01:26:27;3.20;;;1.38;;
78858;SDS011;68210;52.032;4.634;2024-01-06T01:28:27;2.30;;;1.58;;
78858;SDS011;68210;52.032;4.634;2024-01-06T01:30:27;3.20;;;1.55;;
78858;SDS011;68210;52.032;4.634;2024-01-06T01:32:28;3.63;;;2.00;;
78858;SDS011;68210;52.032;4.634;2024-01-06T01:34:28;7.10;;;2.60;;
78858;SDS011;68210;52.032;4.634;2024-01-06T01:36:28;2.72;;;1.92;;
78858;SDS011;68210;52.032;4.634;2024-01-06T01:38:29;4.32;;;2.55;;
78858;SDS011;68210;52.032;4.634;2024-01-06T01:40:29;4.38;;;2.53;;
78858;SDS011;68210;52.032;4.634;2024-01-06T01:42:29;4.15;;;2.63;;
78858;SDS011;68210;52.032;4.634;2024-01-06T01:44:30;4.20;;;2.83;;
78858;SDS011;68210;52.032;4.634;2024-01-06T01:46:30;5.05;;;2.95;;
78858;SDS011;68210;52.032;4.634;2024-01-06T01:48:31;7.43;;;3.50;;
78858;SDS011;68210;52.032;4.634;2024-01-06T01:52:35;5.57;;;3.50;;
78858;SDS011;68210;52.032;4.634;2024-01-06T01:54:36;8.13;;;3.15;;
78858;SDS011;68210;52.032;4.634;2024-01-06T01:56:37;5.20;;;3.00;;
78858;SDS011;68210;52.032;4.634;2024-01-06T01:58:40;4.90;;;3.17;;
78858;SDS011;68210;52.032;4.634;2024-01-06T02:00:40;4.82;;;2.95;;
78858;SDS011;68210;52.032;4.634;2024-01-06T02:02:41;4.95;;;3.17;;
78858;SDS011;68210;52.032;4.634;2024-01-06T02:04:41;5.40;;;3.22;;
78858;SDS011;68210;52.032;4.634;2024-01-06T02:06:42;4.57;;;3.58;;
78858;SDS011;68210;52.032;4.634;2024-01-06T02:08:42;6.53;;;3.13;;
78858;SDS011;68210;52.032;4.634;2024-01-06T02:10:42;6.53;;;3.13;;
78858;SDS011;68210;52.032;4.634;2024-01-06T02:12:43;3.75;;;2.58;;
78858;SDS011;68210;52.032;4.634;2024-01-06T02:14:43;6.65;;;3.10;;
78858;SDS011;68210;52.032;4.634;2024-01-06T02:16:43;5.40;;;2.72;;
78858;SDS011;68210;52.032;4.634;2024-01-06T02:18:44;4.30;;;2.92;;
78858;SDS011;68210;52.032;4.634;2024-01-06T02:20:44;5.30;;;2.75;;
78858;SDS011;68210;52.032;4.634;2024-01-06T02:22:47;5.07;;;3.00;;
78858;SDS011;68210;52.032;4.634;2024-01-06T02:24:47;14.50;;;3.53;;
78858;SDS011;68210;52.032;4.634;2024-01-06T02:26:48;6.95;;;2.65;;
78858;SDS011;68210;52.032;4.634;2024-01-06T02:28:48;5.65;;;3.22;;
78858;SDS011;68210;52.032;4.634;2024-01-06T02:30:49;7.00;;;2.97;;
78858;SDS011;68210;52.032;4.634;2024-01-06T02:32:50;6.28;;;3.08;;
78858;SDS011;68210;52.032;4.634;2024-01-06T02:34:50;7.15;;;3.42;;
78858;SDS011;68210;52.032;4.634;2024-01-06T02:36:50;4.68;;;2.67;;
78858;SDS011;68210;52.032;4.634;2024-01-06T02:38:51;4.85;;;3.00;;
78858;SDS011;68210;52.032;4.634;2024-01-06T02:40:51;5.22;;;3.30;;
78858;SDS011;68210;52.032;4.634;2024-01-06T02:42:51;5.32;;;2.97;;
78858;SDS011;68210;52.032;4.634;2024-01-06T02:44:52;5.70;;;3.13;;
78858;SDS011;68210;52.032;4.634;2024-01-06T02:46:52;5.90;;;3.42;;
78858;SDS011;68210;52.032;4.634;2024-01-06T02:48:54;7.40;;;3.67;;
78858;SDS011;68210;52.032;4.634;2024-01-06T02:50:54;4.47;;;3.33;;
78858;SDS011;68210;52.032;4.634;2024-01-06T02:52:54;5.63;;;3.08;;
78858;SDS011;68210;52.032;4.634;2024-01-06T02:54:55;8.20;;;3.92;;
78858;SDS011;68210;52.032;4.634;2024-01-06T02:56:55;6.70;;;3.67;;
78858;SDS011;68210;52.032;4.634;2024-01-06T02:58:56;6.90;;;2.95;;
78858;SDS011;68210;52.032;4.634;2024-01-06T03:00:56;6.10;;;3.35;;
78858;SDS011;68210;52.032;4.634;2024-01-06T03:02:56;4.80;;;2.92;;
78858;SDS011;68210;52.032;4.634;2024-01-06T03:04:57;9.70;;;4.38;;
78858;SDS011;68210;52.032;4.634;2024-01-06T03:06:57;6.38;;;4.03;;
78858;SDS011;68210;52.032;4.634;2024-01-06T03:08:57;6.55;;;3.60;;
78858;SDS011;68210;52.032;4.634;2024-01-06T03:10:58;5.28;;;3.25;;
78858;SDS011;68210;52.032;4.634;2024-01-06T03:12:58;6.15;;;3.45;;
78858;SDS011;68210;52.032;4.634;2024-01-06T03:14:58;8.43;;;3.92;;
78858;SDS011;68210;52.032;4.634;2024-01-06T03:16:59;8.00;;;4.38;;
78858;SDS011;68210;52.032;4.634;2024-01-06T03:18:59;5.45;;;3.13;;
78858;SDS011;68210;52.032;4.634;2024-01-06T03:20:59;5.53;;;3.22;;
78858;SDS011;68210;52.032;4.634;2024-01-06T03:23:00;4.38;;;2.80;;
78858;SDS011;68210;52.032;4.634;2024-01-06T03:25:00;5.28;;;2.80;;
78858;SDS011;68210;52.032;4.634;2024-01-06T03:27:01;5.78;;;2.85;;
78858;SDS011;68210;52.032;4.634;2024-01-06T03:29:01;5.65;;;3.42;;
78858;SDS011;68210;52.032;4.634;2024-01-06T03:31:02;6.20;;;3.83;;
78858;SDS011;68210;52.032;4.634;2024-01-06T03:33:03;7.43;;;4.00;;
78858;SDS011;68210;52.032;4.634;2024-01-06T03:35:04;8.38;;;4.13;;
78858;SDS011;68210;52.032;4.634;2024-01-06T03:37:06;6.80;;;3.65;;
78858;SDS011;68210;52.032;4.634;2024-01-06T03:39:06;6.55;;;3.35;;
78858;SDS011;68210;52.032;4.634;2024-01-06T03:41:07;4.63;;;3.28;;
78858;SDS011;68210;52.032;4.634;2024-01-06T03:43:08;7.18;;;3.65;;
78858;SDS011;68210;52.032;4.634;2024-01-06T03:45:08;6.20;;;3.15;;
78858;SDS011;68210;52.032;4.634;2024-01-06T03:47:09;5.75;;;3.35;;
78858;SDS011;68210;52.032;4.634;2024-01-06T03:49:09;10.25;;;3.88;;
78858;SDS011;68210;52.032;4.634;2024-01-06T03:51:10;5.85;;;3.67;;
78858;SDS011;68210;52.032;4.634;2024-01-06T03:53:10;10.80;;;4.18;;
78858;SDS011;68210;52.032;4.634;2024-01-06T03:55:11;7.10;;;4.07;;
78858;SDS011;68210;52.032;4.634;2024-01-06T03:57:11;10.00;;;4.05;;
78858;SDS011;68210;52.032;4.634;2024-01-06T03:59:11;6.65;;;3.92;;
78858;SDS011;68210;52.032;4.634;2024-01-06T04:01:12;7.35;;;4.32;;
78858;SDS011;68210;52.032;4.634;2024-01-06T04:03:12;8.77;;;4.15;;
78858;SDS011;68210;52.032;4.634;2024-01-06T04:05:13;7.13;;;4.38;;
78858;SDS011;68210;52.032;4.634;2024-01-06T04:07:13;8.38;;;4.53;;
78858;SDS011;68210;52.032;4.634;2024-01-06T04:09:13;6.72;;;3.40;;
78858;SDS011;68210;52.032;4.634;2024-01-06T04:11:14;9.15;;;4.50;;
78858;SDS011;68210;52.032;4.634;2024-01-06T04:13:15;9.13;;;4.80;;
78858;SDS011;68210;52.032;4.634;2024-01-06T04:15:15;7.30;;;4.50;;
78858;SDS011;68210;52.032;4.634;2024-01-06T04:17:16;6.30;;;3.78;;
78858;SDS011;68210;52.032;4.634;2024-01-06T04:19:16;9.77;;;4.22;;
78858;SDS011;68210;52.032;4.634;2024-01-06T04:21:17;5.90;;;3.58;;
78858;SDS011;68210;52.032;4.634;2024-01-06T04:23:17;9.57;;;4.07;;
78858;SDS011;68210;52.032;4.634;2024-01-06T04:25:17;7.03;;;3.70;;
78858;SDS011;68210;52.032;4.634;2024-01-06T04:27:18;10.52;;;4.07;;
78858;SDS011;68210;52.032;4.634;2024-01-06T04:29:18;6.72;;;4.03;;
78858;SDS011;68210;52.032;4.634;2024-01-06T04:31:18;9.93;;;3.88;;
78858;SDS011;68210;52.032;4.634;2024-01-06T04:33:19;6.47;;;3.63;;
78858;SDS011;68210;52.032;4.634;2024-01-06T04:35:19;5.68;;;3.42;;
78858;SDS011;68210;52.032;4.634;2024-01-06T04:37:20;6.43;;;3.85;;
78858;SDS011;68210;52.032;4.634;2024-01-06T04:39:20;7.55;;;3.40;;
78858;SDS011;68210;52.032;4.634;2024-01-06T04:41:20;9.10;;;4.43;;
78858;SDS011;68210;52.032;4.634;2024-01-06T04:43:21;9.85;;;3.80;;
78858;SDS011;68210;52.032;4.634;2024-01-06T04:45:21;5.75;;;3.67;;
78858;SDS011;68210;52.032;4.634;2024-01-06T04:47:24;6.13;;;3.60;;
78858;SDS011;68210;52.032;4.634;2024-01-06T04:49:24;6.18;;;3.35;;
78858;SDS011;68210;52.032;4.634;2024-01-06T04:51:25;8.88;;;3.75;;
78858;SDS011;68210;52.032;4.634;2024-01-06T04:53:25;6.30;;;3.55;;
78858;SDS011;68210;52.032;4.634;2024-01-06T04:55:26;7.72;;;4.20;;
78858;SDS011;68210;52.032;4.634;2024-01-06T04:57:26;7.55;;;3.88;;
78858;SDS011;68210;52.032;4.634;2024-01-06T04:59:26;7.88;;;3.80;;
78858;SDS011;68210;52.032;4.634;2024-01-06T05:01:27;9.18;;;4.40;;
78858;SDS011;68210;52.032;4.634;2024-01-06T05:03:27;8.32;;;3.58;;
78858;SDS011;68210;52.032;4.634;2024-01-06T05:05:27;7.70;;;4.30;;
78858;SDS011;68210;52.032;4.634;2024-01-06T05:07:28;9.15;;;4.60;;
78858;SDS011;68210;52.032;4.634;2024-01-06T05:09:28;8.40;;;4.05;;
78858;SDS011;68210;52.032;4.634;2024-01-06T05:11:29;8.27;;;4.05;;
78858;SDS011;68210;52.032;4.634;2024-01-06T05:13:29;8.30;;;4.15;;
78858;SDS011;68210;52.032;4.634;2024-01-06T05:15:29;7.38;;;3.90;;
78858;SDS011;68210;52.032;4.634;2024-01-06T05:17:30;7.68;;;3.55;;
78858;SDS011;68210;52.032;4.634;2024-01-06T05:19:30;6.53;;;3.03;;
78858;SDS011;68210;52.032;4.634;2024-01-06T05:21:31;6.78;;;3.33;;
78858;SDS011;68210;52.032;4.634;2024-01-06T05:23:32;6.47;;;3.45;;
78858;SDS011;68210;52.032;4.634;2024-01-06T05:25:32;7.30;;;3.20;;
78858;SDS011;68210;52.032;4.634;2024-01-06T05:27:32;5.22;;;2.88;;
78858;SDS011;68210;52.032;4.634;2024-01-06T05:29:33;6.30;;;2.83;;
78858;SDS011;68210;52.032;4.634;2024-01-06T05:31:33;6.05;;;3.00;;
78858;SDS011;68210;52.032;4.634;2024-01-06T05:33:33;6.05;;;2.13;;
78858;SDS011;68210;52.032;4.634;2024-01-06T05:35:34;4.18;;;2.10;;
78858;SDS011;68210;52.032;4.634;2024-01-06T05:37:34;6.63;;;1.70;;
78858;SDS011;68210;52.032;4.634;2024-01-06T05:39:36;3.88;;;1.92;;
78858;SDS011;68210;52.032;4.634;2024-01-06T05:41:38;3.63;;;2.30;;
78858;SDS011;68210;52.032;4.634;2024-01-06T05:43:39;7.03;;;2.67;;
78858;SDS011;68210;52.032;4.634;2024-01-06T05:45:40;4.95;;;2.42;;
78858;SDS011;68210;52.032;4.634;2024-01-06T05:47:41;3.53;;;2.20;;
78858;SDS011;68210;52.032;4.634;2024-01-06T05:49:42;4.63;;;2.00;;
78858;SDS011;68210;52.032;4.634;2024-01-06T05:51:44;5.85;;;2.45;;
78858;SDS011;68210;52.032;4.634;2024-01-06T05:53:45;4.28;;;2.40;;
78858;SDS011;68210;52.032;4.634;2024-01-06T05:55:45;5.18;;;3.20;;
78858;SDS011;68210;52.032;4.634;2024-01-06T05:57:46;7.20;;;2.47;;
78858;SDS011;68210;52.032;4.634;2024-01-06T05:59:46;5.03;;;3.00;;
78858;SDS011;68210;52.032;4.634;2024-01-06T06:01:46;7.80;;;3.53;;
78858;SDS011;68210;52.032;4.634;2024-01-06T06:03:47;7.20;;;3.33;;
78858;SDS011;68210;52.032;4.634;2024-01-06T06:05:47;7.85;;;3.95;;
78858;SDS011;68210;52.032;4.634;2024-01-06T06:07:48;8.52;;;4.43;;
78858;SDS011;68210;52.032;4.634;2024-01-06T06:09:48;6.03;;;3.75;;
78858;SDS011;68210;52.032;4.634;2024-01-06T06:11:49;8.50;;;3.95;;
78858;SDS011;68210;52.032;4.634;2024-01-06T06:13:49;8.10;;;3.22;;
78858;SDS011;68210;52.032;4.634;2024-01-06T06:15:49;8.88;;;3.45;;
78858;SDS011;68210;52.032;4.634;2024-01-06T06:17:50;6.32;;;3.53;;
78858;SDS011;68210;52.032;4.634;2024-01-06T06:19:51;5.80;;;3.22;;
78858;SDS011;68210;52.032;4.634;2024-01-06T06:21:51;7.78;;;3.97;;
78858;SDS011;68210;52.032;4.634;2024-01-06T06:23:52;5.20;;;2.85;;
78858;SDS011;68210;52.032;4.634;2024-01-06T06:25:52;5.22;;;2.67;;
78858;SDS011;68210;52.032;4.634;2024-01-06T06:27:53;6.38;;;3.22;;
78858;SDS011;68210;52.032;4.634;2024-01-06T06:29:54;3.65;;;2.15;;
78858;SDS011;68210;52.032;4.634;2024-01-06T06:31:56;3.78;;;2.40;;
78858;SDS011;68210;52.032;4.634;2024-01-06T06:33:56;7.35;;;2.50;;
78858;SDS011;68210;52.032;4.634;2024-01-06T06:35:56;5.18;;;2.63;;
78858;SDS011;68210;52.032;4.634;2024-01-06T06:37:57;3.72;;;2.60;;
78858;SDS011;68210;52.032;4.634;2024-01-06T06:39:58;4.85;;;2.25;;
78858;SDS011;68210;52.032;4.634;2024-01-06T06:41:58;5.20;;;2.28;;
78858;SDS011;68210;52.032;4.634;2024-01-06T06:43:58;6.68;;;2.70;;
78858;SDS011;68210;52.032;4.634;2024-01-06T06:46:00;4.38;;;2.63;;
78858;SDS011;68210;52.032;4.634;2024-01-06T06:48:00;4.65;;;2.88;;
78858;SDS011;68210;52.032;4.634;2024-01-06T06:50:00;5.10;;;2.55;;
78858;SDS011;68210;52.032;4.634;2024-01-06T06:52:01;4.53;;;2.42;;
78858;SDS011;68210;52.032;4.634;2024-01-06T06:54:03;7.15;;;3.03;;
78858;SDS011;68210;52.032;4.634;2024-01-06T06:56:04;6.35;;;2.83;;
78858;SDS011;68210;52.032;4.634;2024-01-06T06:58:04;6.20;;;3.15;;
78858;SDS011;68210;52.032;4.634;2024-01-06T07:00:05;7.47;;;3.22;;
78858;SDS011;68210;52.032;4.634;2024-01-06T07:02:07;4.80;;;3.05;;
78858;SDS011;68210;52.032;4.634;2024-01-06T07:04:07;2.97;;;2.30;;
78858;SDS011;68210;52.032;4.634;2024-01-06T07:06:08;5.90;;;3.17;;
78858;SDS011;68210;52.032;4.634;2024-01-06T07:08:08;5.75;;;3.22;;
78858;SDS011;68210;52.032;4.634;2024-01-06T07:10:08;5.90;;;3.38;;
78858;SDS011;68210;52.032;4.634;2024-01-06T07:12:09;8.05;;;3.30;;
78858;SDS011;68210;52.032;4.634;2024-01-06T07:14:09;6.10;;;3.45;;
78858;SDS011;68210;52.032;4.634;2024-01-06T07:16:10;7.00;;;3.35;;
78858;SDS011;68210;52.032;4.634;2024-01-06T07:18:11;4.90;;;3.50;;
78858;SDS011;68210;52.032;4.634;2024-01-06T07:20:11;8.15;;;3.63;;
78858;SDS011;68210;52.032;4.634;2024-01-06T07:22:12;5.95;;;3.17;;
78858;SDS011;68210;52.032;4.634;2024-01-06T07:24:12;7.95;;;3.63;;
78858;SDS011;68210;52.032;4.634;2024-01-06T07:26:13;5.93;;;3.60;;
78858;SDS011;68210;52.032;4.634;2024-01-06T07:28:13;8.18;;;3.92;;
78858;SDS011;68210;52.032;4.634;2024-01-06T07:30:14;7.25;;;4.03;;
78858;SDS011;68210;52.032;4.634;2024-01-06T07:32:14;11.55;;;3.67;;
78858;SDS011;68210;52.032;4.634;2024-01-06T07:34:15;6.15;;;3.88;;
78858;SDS011;68210;52.032;4.634;2024-01-06T07:36:16;5.60;;;3.20;;
78858;SDS011;68210;52.032;4.634;2024-01-06T07:38:17;9.30;;;4.22;;
78858;SDS011;68210;52.032;4.634;2024-01-06T07:40:19;6.60;;;3.50;;
78858;SDS011;68210;52.032;4.634;2024-01-06T07:42:19;7.85;;;3.80;;
78858;SDS011;68210;52.032;4.634;2024-01-06T07:44:20;7.55;;;4.25;;
78858;SDS011;68210;52.032;4.634;2024-01-06T07:46:24;7.65;;;4.78;;
78858;SDS011;68210;52.032;4.634;2024-01-06T07:48:24;7.95;;;3.97;;
78858;SDS011;68210;52.032;4.634;2024-01-06T07:50:25;8.70;;;4.18;;
78858;SDS011;68210;52.032;4.634;2024-01-06T07:52:26;6.97;;;4.03;;
78858;SDS011;68210;52.032;4.634;2024-01-06T07:54:26;8.05;;;3.85;;
78858;SDS011;68210;52.032;4.634;2024-01-06T07:56:27;8.25;;;3.72;;
78858;SDS011;68210;52.032;4.634;2024-01-06T07:58:27;5.65;;;3.33;;
78858;SDS011;68210;52.032;4.634;2024-01-06T08:00:28;5.82;;;3.05;;
78858;SDS011;68210;52.032;4.634;2024-01-06T08:02:29;7.32;;;4.07;;
78858;SDS011;68210;52.032;4.634;2024-01-06T08:04:29;6.05;;;4.03;;
78858;SDS011;68210;52.032;4.634;2024-01-06T08:06:29;6.95;;;4.10;;
78858;SDS011;68210;52.032;4.634;2024-01-06T08:08:30;5.50;;;3.45;;
78858;SDS011;68210;52.032;4.634;2024-01-06T08:10:30;7.10;;;3.70;;
78858;SDS011;68210;52.032;4.634;2024-01-06T08:12:31;5.68;;;3.92;;
78858;SDS011;68210;52.032;4.634;2024-01-06T08:14:31;5.90;;;3.83;;
78858;SDS011;68210;52.032;4.634;2024-01-06T08:16:32;6.40;;;3.45;;
78858;SDS011;68210;52.032;4.634;2024-01-06T08:18:32;6.80;;;3.47;;
78858;SDS011;68210;52.032;4.634;2024-01-06T08:20:32;4.57;;;3.35;;
78858;SDS011;68210;52.032;4.634;2024-01-06T08:22:33;10.15;;;3.78;;
78858;SDS011;68210;52.032;4.634;2024-01-06T08:24:34;7.35;;;4.32;;
78858;SDS011;68210;52.032;4.634;2024-01-06T08:26:34;7.05;;;3.75;;
78858;SDS011;68210;52.032;4.634;2024-01-06T08:28:34;7.28;;;3.88;;
78858;SDS011;68210;52.032;4.634;2024-01-06T08:30:35;8.88;;;4.03;;
78858;SDS011;68210;52.032;4.634;2024-01-06T08:32:36;6.55;;;3.80;;
78858;SDS011;68210;52.032;4.634;2024-01-06T08:34:36;5.40;;;3.30;;
78858;SDS011;68210;52.032;4.634;2024-01-06T08:36:38;5.05;;;3.58;;
78858;SDS011;68210;52.032;4.634;2024-01-06T08:38:38;4.95;;;3.38;;
78858;SDS011;68210;52.032;4.634;2024-01-06T08:40:39;7.00;;;3.60;;
78858;SDS011;68210;52.032;4.634;2024-01-06T08:42:39;5.93;;;3.38;;
78858;SDS011;68210;52.032;4.634;2024-01-06T08:44:39;6.78;;;3.78;;
78858;SDS011;68210;52.032;4.634;2024-01-06T08:46:40;5.88;;;3.75;;
78858;SDS011;68210;52.032;4.634;2024-01-06T08:48:40;7.88;;;3.67;;
78858;SDS011;68210;52.032;4.634;2024-01-06T08:50:40;6.65;;;3.45;;
78858;SDS011;68210;52.032;4.634;2024-01-06T08:52:41;6.15;;;3.53;;
78858;SDS011;68210;52.032;4.634;2024-01-06T08:54:41;6.15;;;3.88;;
78858;SDS011;68210;52.032;4.634;2024-01-06T08:56:41;7.00;;;3.92;;
78858;SDS011;68210;52.032;4.634;2024-01-06T08:58:42;7.18;;;3.55;;
78858;SDS011;68210;52.032;4.634;2024-01-06T09:00:42;6.28;;;3.60;;
78858;SDS011;68210;52.032;4.634;2024-01-06T09:02:42;7.40;;;4.30;;
78858;SDS011;68210;52.032;4.634;2024-01-06T09:04:43;5.72;;;3.17;;
78858;SDS011;68210;52.032;4.634;2024-01-06T09:06:43;5.55;;;3.60;;
78858;SDS011;68210;52.032;4.634;2024-01-06T09:08:45;7.10;;;3.72;;
78858;SDS011;68210;52.032;4.634;2024-01-06T09:10:45;6.13;;;3.50;;
78858;SDS011;68210;52.032;4.634;2024-01-06T09:12:45;4.30;;;3.20;;
78858;SDS011;68210;52.032;4.634;2024-01-06T09:14:46;5.72;;;3.38;;
78858;SDS011;68210;52.032;4.634;2024-01-06T09:16:47;6.75;;;3.10;;
78858;SDS011;68210;52.032;4.634;2024-01-06T09:18:48;5.18;;;3.28;;
78858;SDS011;68210;52.032;4.634;2024-01-06T09:20:49;5.82;;;3.25;;
78858;SDS011;68210;52.032;4.634;2024-01-06T09:22:49;5.03;;;3.00;;
78858;SDS011;68210;52.032;4.634;2024-01-06T09:24:50;6.50;;;2.83;;
78858;SDS011;68210;52.032;4.634;2024-01-06T09:26:50;5.45;;;3.40;;
78858;SDS011;68210;52.032;4.634;2024-01-06T09:28:51;5.60;;;3.15;;
78858;SDS011;68210;52.032;4.634;2024-01-06T09:30:51;4.78;;;2.53;;
78858;SDS011;68210;52.032;4.634;2024-01-06T09:32:54;6.70;;;3.17;;
78858;SDS011;68210;52.032;4.634;2024-01-06T09:34:55;4.50;;;3.22;;
78858;SDS011;68210;52.032;4.634;2024-01-06T09:36:55;5.57;;;2.85;;
78858;SDS011;68210;52.032;4.634;2024-01-06T09:38:55;4.10;;;2.50;;
78858;SDS011;68210;52.032;4.634;2024-01-06T09:40:56;5.88;;;2.50;;
78858;SDS011;68210;52.032;4.634;2024-01-06T09:42:58;3.97;;;2.47;;
78858;SDS011;68210;52.032;4.634;2024-01-06T09:44:58;4.93;;;2.50;;
78858;SDS011;68210;52.032;4.634;2024-01-06T09:46:59;3.30;;;2.45;;
78858;SDS011;68210;52.032;4.634;2024-01-06T09:49:01;5.57;;;2.75;;
78858;SDS011;68210;52.032;4.634;2024-01-06T09:51:02;6.15;;;2.67;;
78858;SDS011;68210;52.032;4.634;2024-01-06T09:53:03;4.97;;;2.58;;
78858;SDS011;68210;52.032;4.634;2024-01-06T09:55:07;7.63;;;2.53;;
78858;SDS011;68210;52.032;4.634;2024-01-06T09:57:11;4.88;;;2.45;;
78858;SDS011;68210;52.032;4.634;2024-01-06T09:59:12;3.60;;;2.45;;
78858;SDS011;68210;52.032;4.634;2024-01-06T10:01:12;6.93;;;3.05;;
78858;SDS011;68210;52.032;4.634;2024-01-06T10:03:14;5.35;;;2.90;;
78858;SDS011;68210;52.032;4.634;2024-01-06T10:05:16;3.58;;;2.45;;
78858;SDS011;68210;52.032;4.634;2024-01-06T10:07:17;5.07;;;3.25;;
78858;SDS011;68210;52.032;4.634;2024-01-06T10:09:17;4.68;;;2.65;;
78858;SDS011;68210;52.032;4.634;2024-01-06T10:11:18;4.35;;;2.70;;
78858;SDS011;68210;52.032;4.634;2024-01-06T10:13:19;3.97;;;2.33;;
78858;SDS011;68210;52.032;4.634;2024-01-06T10:15:19;5.90;;;2.83;;
78858;SDS011;68210;52.032;4.634;2024-01-06T10:17:20;6.30;;;2.60;;
78858;SDS011;68210;52.032;4.634;2024-01-06T10:19:20;5.40;;;2.75;;
78858;SDS011;68210;52.032;4.634;2024-01-06T10:21:21;5.93;;;3.13;;
78858;SDS011;68210;52.032;4.634;2024-01-06T10:23:22;5.45;;;2.55;;
78858;SDS011;68210;52.032;4.634;2024-01-06T10:25:23;6.15;;;3.33;;
78858;SDS011;68210;52.032;4.634;2024-01-06T10:27:24;5.97;;;3.00;;
78858;SDS011;68210;52.032;4.634;2024-01-06T10:29:25;4.45;;;2.95;;
78858;SDS011;68210;52.032;4.634;2024-01-06T10:31:27;5.15;;;2.78;;
78858;SDS011;68210;52.032;4.634;2024-01-06T10:33:27;5.28;;;3.17;;
78858;SDS011;68210;52.032;4.634;2024-01-06T10:35:27;5.60;;;3.05;;
78858;SDS011;68210;52.032;4.634;2024-01-06T10:37:28;7.65;;;4.18;;
78858;SDS011;68210;52.032;4.634;2024-01-06T10:39:29;6.75;;;3.88;;
78858;SDS011;68210;52.032;4.634;2024-01-06T10:41:30;7.13;;;3.97;;
78858;SDS011;68210;52.032;4.634;2024-01-06T10:43:30;9.93;;;3.80;;
78858;SDS011;68210;52.032;4.634;2024-01-06T10:45:36;6.60;;;3.45;;
78858;SDS011;68210;52.032;4.634;2024-01-06T10:47:37;3.88;;;2.78;;
78858;SDS011;68210;52.032;4.634;2024-01-06T10:49:38;4.53;;;3.15;;
78858;SDS011;68210;52.032;4.634;2024-01-06T10:51:39;4.97;;;3.22;;
78858;SDS011;68210;52.032;4.634;2024-01-06T10:53:40;7.45;;;3.25;;
78858;SDS011;68210;52.032;4.634;2024-01-06T10:55:41;4.13;;;2.67;;
78858;SDS011;68210;52.032;4.634;2024-01-06T10:57:43;5.57;;;3.15;;
78858;SDS011;68210;52.032;4.634;2024-01-06T10:59:44;8.38;;;3.80;;
78858;SDS011;68210;52.032;4.634;2024-01-06T11:01:48;5.15;;;2.78;;
78858;SDS011;68210;52.032;4.634;2024-01-06T11:03:50;6.13;;;2.97;;
78858;SDS011;68210;52.032;4.634;2024-01-06T11:05:50;4.93;;;2.97;;
78858;SDS011;68210;52.032;4.634;2024-01-06T11:07:51;6.70;;;3.00;;
78858;SDS011;68210;52.032;4.634;2024-01-06T11:10:00;7.05;;;2.97;;
78858;SDS011;68210;52.032;4.634;2024-01-06T11:12:03;3.72;;;2.80;;
78858;SDS011;68210;52.032;4.634;2024-01-06T11:14:20;6.70;;;3.20;;
78858;SDS011;68210;52.032;4.634;2024-01-06T11:16:37;6.05;;;3.22;;
78858;SDS011;68210;52.032;4.634;2024-01-06T11:18:38;7.95;;;2.85;;
78858;SDS011;68210;52.032;4.634;2024-01-06T11:20:59;6.63;;;3.13;;
78858;SDS011;68210;52.032;4.634;2024-01-06T11:23:21;5.55;;;3.00;;
78858;SDS011;68210;52.032;4.634;2024-01-06T11:25:22;5.70;;;2.90;;
78858;SDS011;68210;52.032;4.634;2024-01-06T11:27:26;6.53;;;2.88;;
78858;SDS011;68210;52.032;4.634;2024-01-06T11:29:30;3.92;;;2.20;;
78858;SDS011;68210;52.032;4.634;2024-01-06T11:31:30;3.50;;;2.42;;
78858;SDS011;68210;52.032;4.634;2024-01-06T11:33:31;5.07;;;2.08;;
78858;SDS011;68210;52.032;4.634;2024-01-06T11:35:32;7.03;;;2.70;;
78858;SDS011;68210;52.032;4.634;2024-01-06T11:37:37;6.28;;;2.70;;
78858;SDS011;68210;52.032;4.634;2024-01-06T11:39:40;4.68;;;2.63;;
78858;SDS011;68210;52.032;4.634;2024-01-06T11:41:47;4.03;;;2.70;;
78858;SDS011;68210;52.032;4.634;2024-01-06T11:43:49;6.00;;;3.17;;
78858;SDS011;68210;52.032;4.634;2024-01-06T11:45:50;4.78;;;2.55;;
78858;SDS011;68210;52.032;4.634;2024-01-06T11:47:54;5.78;;;2.63;;
78858;SDS011;68210;52.032;4.634;2024-01-06T11:49:56;5.65;;;2.60;;
78858;SDS011;68210;52.032;4.634;2024-01-06T11:51:58;4.63;;;2.25;;
78858;SDS011;68210;52.032;4.634;2024-01-06T11:54:00;5.00;;;2.60;;
78858;SDS011;68210;52.032;4.634;2024-01-06T11:56:01;4.10;;;2.42;;
78858;SDS011;68210;52.032;4.634;2024-01-06T11:58:02;4.35;;;2.20;;
78858;SDS011;68210;52.032;4.634;2024-01-06T12:00:03;6.43;;;2.33;;
78858;SDS011;68210;52.032;4.634;2024-01-06T12:02:04;5.00;;;2.00;;
78858;SDS011;68210;52.032;4.634;2024-01-06T12:04:06;4.22;;;2.60;;
78858;SDS011;68210;52.032;4.634;2024-01-06T12:06:06;4.72;;;2.35;;
78858;SDS011;68210;52.032;4.634;2024-01-06T12:08:07;6.00;;;2.35;;
78858;SDS011;68210;52.032;4.634;2024-01-06T12:10:07;5.20;;;2.20;;
78858;SDS011;68210;52.032;4.634;2024-01-06T12:12:08;3.70;;;2.28;;